sensor_id;sensor_type;location;lat;lon;timestamp;pressure;altitude;pressure_sealevel;temperature;humidity
82887;BME280;72660;51.258;-2.200;2024-02-23T00:02:12;97804.55;;;5.35;52.17
82887;BME280;72660;51.258;-2.200;2024-02-23T00:04:37;97802.94;;;4.91;52.78
82887;BME280;72660;51.258;-2.200;2024-02-23T00:07:03;97807.13;;;4.77;53.18
82887;BME280;72660;51.258;-2.200;2024-02-23T00:09:28;97803.68;;;4.94;53.06
82887;BME280;72660;51.258;-2.200;2024-02-23T00:11:53;97804.80;;;4.85;52.50
82887;BME280;72660;51.258;-2.200;2024-02-23T00:14:19;97803.13;;;5.27;51.91
82887;BME280;72660;51.258;-2.200;2024-02-23T00:16:44;97799.14;;;5.48;51.43
82887;BME280;72660;51.258;-2.200;2024-02-23T00:19:10;97798.02;;;5.51;51.15
82887;BME280;72660;51.258;-2.200;2024-02-23T00:21:36;97786.31;;;5.65;50.79
82887;BME280;72660;51.258;-2.200;2024-02-23T00:24:01;97786.21;;;6.18;49.99
82887;BME280;72660;51.258;-2.200;2024-02-23T00:26:26;97780.87;;;5.98;49.88
82887;BME280;72660;51.258;-2.200;2024-02-23T00:28:51;97783.06;;;6.17;50.13
82887;BME280;72660;51.258;-2.200;2024-02-23T00:31:17;97779.06;;;5.23;50.87
82887;BME280;72660;51.258;-2.200;2024-02-23T00:33:42;97776.81;;;5.70;50.31
82887;BME280;72660;51.258;-2.200;2024-02-23T00:36:08;97772.76;;;6.22;50.20
82887;BME280;72660;51.258;-2.200;2024-02-23T00:38:33;97772.03;;;6.00;50.03
82887;BME280;72660;51.258;-2.200;2024-02-23T00:40:59;97769.46;;;5.59;51.22
82887;BME280;72660;51.258;-2.200;2024-02-23T00:43:24;97769.97;;;5.75;50.97
82887;BME280;72660;51.258;-2.200;2024-02-23T00:45:50;97768.98;;;6.13;50.87
82887;BME280;72660;51.258;-2.200;2024-02-23T00:48:15;97762.94;;;5.26;52.11
82887;BME280;72660;51.258;-2.200;2024-02-23T00:50:40;97759.06;;;5.08;52.33
82887;BME280;72660;51.258;-2.200;2024-02-23T00:53:06;97755.47;;;4.81;53.28
82887;BME280;72660;51.258;-2.200;2024-02-23T00:55:31;97750.81;;;5.49;52.63
82887;BME280;72660;51.258;-2.200;2024-02-23T00:57:57;97743.53;;;5.90;51.59
82887;BME280;72660;51.258;-2.200;2024-02-23T01:00:22;97748.34;;;5.82;51.55
82887;BME280;72660;51.258;-2.200;2024-02-23T01:02:48;97755.36;;;5.58;52.48
82887;BME280;72660;51.258;-2.200;2024-02-23T01:05:13;97750.97;;;5.75;52.34
82887;BME280;72660;51.258;-2.200;2024-02-23T01:07:39;97744.24;;;5.43;53.04
82887;BME280;72660;51.258;-2.200;2024-02-23T01:10:05;97735.10;;;5.14;53.44
82887;BME280;72660;51.258;-2.200;2024-02-23T01:12:30;97729.45;;;5.27;53.18
82887;BME280;72660;51.258;-2.200;2024-02-23T01:14:55;97730.17;;;5.50;53.30
82887;BME280;72660;51.258;-2.200;2024-02-23T01:17:20;97727.59;;;5.04;54.21
82887;BME280;72660;51.258;-2.200;2024-02-23T01:19:46;97728.95;;;5.48;53.69
82887;BME280;72660;51.258;-2.200;2024-02-23T01:22:11;97730.46;;;5.48;53.39
82887;BME280;72660;51.258;-2.200;2024-02-23T01:24:37;97718.19;;;5.87;52.83
82887;BME280;72660;51.258;-2.200;2024-02-23T01:27:02;97716.08;;;5.77;52.24
82887;BME280;72660;51.258;-2.200;2024-02-23T01:29:27;97722.16;;;6.02;52.61
82887;BME280;72660;51.258;-2.200;2024-02-23T01:31:53;97732.45;;;6.25;52.12
82887;BME280;72660;51.258;-2.200;2024-02-23T01:34:18;97716.63;;;5.04;55.39
82887;BME280;72660;51.258;-2.200;2024-02-23T01:36:44;97712.90;;;5.45;55.28
82887;BME280;72660;51.258;-2.200;2024-02-23T01:39:09;97709.86;;;5.80;54.13
82887;BME280;72660;51.258;-2.200;2024-02-23T01:41:34;97709.50;;;5.81;53.86
82887;BME280;72660;51.258;-2.200;2024-02-23T01:44:00;97711.59;;;5.63;54.33
82887;BME280;72660;51.258;-2.200;2024-02-23T01:46:26;97718.42;;;5.72;54.59
82887;BME280;72660;51.258;-2.200;2024-02-23T01:48:51;97715.68;;;6.27;54.17
82887;BME280;72660;51.258;-2.200;2024-02-23T01:51:16;97722.91;;;5.93;54.32
82887;BME280;72660;51.258;-2.200;2024-02-23T01:53:42;97726.89;;;5.92;53.91
82887;BME280;72660;51.258;-2.200;2024-02-23T01:56:08;97726.88;;;5.69;54.86
82887;BME280;72660;51.258;-2.200;2024-02-23T01:58:33;97738.39;;;4.95;55.83
82887;BME280;72660;51.258;-2.200;2024-02-23T02:00:58;97731.05;;;5.23;55.97
82887;BME280;72660;51.258;-2.200;2024-02-23T02:03:23;97732.61;;;5.28;55.72
82887;BME280;72660;51.258;-2.200;2024-02-23T02:05:49;97736.33;;;5.64;55.35
82887;BME280;72660;51.258;-2.200;2024-02-23T02:08:15;97735.40;;;5.82;55.29
82887;BME280;72660;51.258;-2.200;2024-02-23T02:10:40;97726.89;;;5.74;55.56
82887;BME280;72660;51.258;-2.200;2024-02-23T02:13:05;97723.28;;;5.35;56.05
82887;BME280;72660;51.258;-2.200;2024-02-23T02:15:31;97715.48;;;5.70;55.72
82887;BME280;72660;51.258;-2.200;2024-02-23T02:17:56;97714.70;;;6.10;55.01
82887;BME280;72660;51.258;-2.200;2024-02-23T02:20:24;97714.06;;;6.34;54.21
82887;BME280;72660;51.258;-2.200;2024-02-23T02:22:47;97705.87;;;5.92;55.29
82887;BME280;72660;51.258;-2.200;2024-02-23T02:25:14;97709.91;;;6.14;54.36
82887;BME280;72660;51.258;-2.200;2024-02-23T02:27:38;97706.62;;;5.97;54.69
82887;BME280;72660;51.258;-2.200;2024-02-23T02:30:04;97706.86;;;5.37;55.51
82887;BME280;72660;51.258;-2.200;2024-02-23T02:32:28;97705.89;;;6.00;54.77
82887;BME280;72660;51.258;-2.200;2024-02-23T02:34:54;97704.05;;;5.90;54.96
82887;BME280;72660;51.258;-2.200;2024-02-23T02:37:19;97708.05;;;5.74;53.93
82887;BME280;72660;51.258;-2.200;2024-02-23T02:39:45;97719.80;;;5.62;54.69
82887;BME280;72660;51.258;-2.200;2024-02-23T02:42:10;97723.80;;;5.16;55.57
82887;BME280;72660;51.258;-2.200;2024-02-23T02:44:35;97725.76;;;5.54;54.87
82887;BME280;72660;51.258;-2.200;2024-02-23T02:47:01;97724.31;;;5.71;54.64
82887;BME280;72660;51.258;-2.200;2024-02-23T02:49:26;97721.19;;;5.32;55.03
82887;BME280;72660;51.258;-2.200;2024-02-23T02:51:52;97725.29;;;5.32;54.84
82887;BME280;72660;51.258;-2.200;2024-02-23T02:54:17;97732.52;;;5.02;55.62
82887;BME280;72660;51.258;-2.200;2024-02-23T02:56:43;97732.99;;;4.92;55.74
82887;BME280;72660;51.258;-2.200;2024-02-23T02:59:08;97726.49;;;5.31;54.76
82887;BME280;72660;51.258;-2.200;2024-02-23T03:01:34;97725.99;;;5.37;54.56
82887;BME280;72660;51.258;-2.200;2024-02-23T03:03:59;97724.43;;;4.95;55.26
82887;BME280;72660;51.258;-2.200;2024-02-23T03:06:24;97728.42;;;5.02;55.25
82887;BME280;72660;51.258;-2.200;2024-02-23T03:08:50;97732.09;;;5.33;54.53
82887;BME280;72660;51.258;-2.200;2024-02-23T03:11:15;97732.13;;;4.64;56.03
82887;BME280;72660;51.258;-2.200;2024-02-23T03:13:41;97733.73;;;5.34;54.78
82887;BME280;72660;51.258;-2.200;2024-02-23T03:16:06;97732.33;;;4.98;55.15
82887;BME280;72660;51.258;-2.200;2024-02-23T03:18:31;97732.24;;;5.51;54.47
82887;BME280;72660;51.258;-2.200;2024-02-23T03:20:57;97729.92;;;4.97;55.84
82887;BME280;72660;51.258;-2.200;2024-02-23T03:23:22;97732.59;;;5.33;55.58
82887;BME280;72660;51.258;-2.200;2024-02-23T03:25:48;97736.29;;;5.24;55.55
82887;BME280;72660;51.258;-2.200;2024-02-23T03:28:13;97742.05;;;5.27;55.67
82887;BME280;72660;51.258;-2.200;2024-02-23T03:30:39;97735.79;;;5.39;55.96
82887;BME280;72660;51.258;-2.200;2024-02-23T03:33:04;97725.23;;;5.24;56.07
82887;BME280;72660;51.258;-2.200;2024-02-23T03:35:30;97727.34;;;5.62;55.99
82887;BME280;72660;51.258;-2.200;2024-02-23T03:37:55;97724.72;;;5.32;55.40
82887;BME280;72660;51.258;-2.200;2024-02-23T03:40:20;97727.69;;;5.38;55.36
82887;BME280;72660;51.258;-2.200;2024-02-23T03:42:46;97725.78;;;5.88;54.30
82887;BME280;72660;51.258;-2.200;2024-02-23T03:45:11;97729.95;;;5.63;54.77
82887;BME280;72660;51.258;-2.200;2024-02-23T03:47:37;97738.93;;;5.47;54.37
82887;BME280;72660;51.258;-2.200;2024-02-23T03:50:02;97743.47;;;5.61;54.57
82887;BME280;72660;51.258;-2.200;2024-02-23T03:52:27;97742.14;;;5.87;54.29
82887;BME280;72660;51.258;-2.200;2024-02-23T03:54:53;97750.10;;;5.04;55.64
82887;BME280;72660;51.258;-2.200;2024-02-23T03:57:18;97754.45;;;5.35;56.14
82887;BME280;72660;51.258;-2.200;2024-02-23T03:59:52;97759.55;;;5.50;56.17
82887;BME280;72660;51.258;-2.200;2024-02-23T04:02:09;97768.68;;;5.46;56.47
82887;BME280;72660;51.258;-2.200;2024-02-23T04:04:35;97768.83;;;5.39;56.89
82887;BME280;72660;51.258;-2.200;2024-02-23T04:07:00;97760.39;;;5.15;57.52
82887;BME280;72660;51.258;-2.200;2024-02-23T04:09:25;97753.21;;;5.76;56.05
82887;BME280;72660;51.258;-2.200;2024-02-23T04:11:51;97742.10;;;5.27;55.96
82887;BME280;72660;51.258;-2.200;2024-02-23T04:14:16;97748.26;;;5.59;55.07
82887;BME280;72660;51.258;-2.200;2024-02-23T04:16:42;97754.07;;;5.66;54.86
82887;BME280;72660;51.258;-2.200;2024-02-23T04:19:07;97755.99;;;5.93;55.03
82887;BME280;72660;51.258;-2.200;2024-02-23T04:21:32;97750.52;;;5.65;55.07
82887;BME280;72660;51.258;-2.200;2024-02-23T04:23:58;97754.20;;;5.55;54.09
82887;BME280;72660;51.258;-2.200;2024-02-23T04:26:23;97753.81;;;5.44;54.32
82887;BME280;72660;51.258;-2.200;2024-02-23T04:28:49;97751.71;;;5.93;53.82
82887;BME280;72660;51.258;-2.200;2024-02-23T04:31:14;97750.90;;;5.70;54.36
82887;BME280;72660;51.258;-2.200;2024-02-23T04:33:40;97753.94;;;5.91;54.34
82887;BME280;72660;51.258;-2.200;2024-02-23T04:36:06;97756.82;;;6.17;53.46
82887;BME280;72660;51.258;-2.200;2024-02-23T04:38:31;97756.66;;;6.39;52.60
82887;BME280;72660;51.258;-2.200;2024-02-23T04:40:56;97755.76;;;6.07;52.98
82887;BME280;72660;51.258;-2.200;2024-02-23T04:43:21;97765.48;;;6.39;53.29
82887;BME280;72660;51.258;-2.200;2024-02-23T04:45:47;97771.12;;;6.46;52.67
82887;BME280;72660;51.258;-2.200;2024-02-23T04:48:12;97771.40;;;6.14;53.53
82887;BME280;72660;51.258;-2.200;2024-02-23T04:50:38;97773.31;;;6.01;53.40
82887;BME280;72660;51.258;-2.200;2024-02-23T04:53:03;97778.52;;;6.35;53.34
82887;BME280;72660;51.258;-2.200;2024-02-23T04:55:28;97787.38;;;6.36;53.81
82887;BME280;72660;51.258;-2.200;2024-02-23T04:57:54;97788.17;;;6.21;53.07
82887;BME280;72660;51.258;-2.200;2024-02-23T05:00:19;97792.64;;;6.14;53.42
82887;BME280;72660;51.258;-2.200;2024-02-23T05:02:45;97795.98;;;6.52;53.12
82887;BME280;72660;51.258;-2.200;2024-02-23T05:05:10;97794.14;;;5.75;53.85
82887;BME280;72660;51.258;-2.200;2024-02-23T05:07:35;97802.59;;;5.90;54.68
82887;BME280;72660;51.258;-2.200;2024-02-23T05:10:01;97804.55;;;5.80;54.25
82887;BME280;72660;51.258;-2.200;2024-02-23T05:12:27;97801.85;;;6.55;53.55
82887;BME280;72660;51.258;-2.200;2024-02-23T05:14:53;97797.60;;;6.41;53.30
82887;BME280;72660;51.258;-2.200;2024-02-23T05:17:17;97795.31;;;6.52;53.12
82887;BME280;72660;51.258;-2.200;2024-02-23T05:19:42;97798.13;;;6.29;53.37
82887;BME280;72660;51.258;-2.200;2024-02-23T05:22:08;97789.49;;;5.95;53.91
82887;BME280;72660;51.258;-2.200;2024-02-23T05:24:33;97788.96;;;5.76;53.98
82887;BME280;72660;51.258;-2.200;2024-02-23T05:26:59;97795.49;;;5.86;53.89
82887;BME280;72660;51.258;-2.200;2024-02-23T05:29:24;97798.27;;;6.00;53.65
82887;BME280;72660;51.258;-2.200;2024-02-23T05:31:50;97796.14;;;6.15;53.42
82887;BME280;72660;51.258;-2.200;2024-02-23T05:34:15;97796.61;;;6.09;53.52
82887;BME280;72660;51.258;-2.200;2024-02-23T05:36:41;97799.65;;;6.59;52.86
82887;BME280;72660;51.258;-2.200;2024-02-23T05:39:06;97801.87;;;6.24;52.67
82887;BME280;72660;51.258;-2.200;2024-02-23T05:41:31;97800.09;;;6.42;52.82
82887;BME280;72660;51.258;-2.200;2024-02-23T05:43:57;97806.32;;;6.63;52.45
82887;BME280;72660;51.258;-2.200;2024-02-23T05:46:22;97799.15;;;6.57;52.50
82887;BME280;72660;51.258;-2.200;2024-02-23T05:48:47;97802.26;;;6.41;52.89
82887;BME280;72660;51.258;-2.200;2024-02-23T05:51:13;97801.68;;;6.40;52.80
82887;BME280;72660;51.258;-2.200;2024-02-23T05:53:38;97799.83;;;6.64;52.49
82887;BME280;72660;51.258;-2.200;2024-02-23T05:56:04;97797.22;;;6.13;52.89
82887;BME280;72660;51.258;-2.200;2024-02-23T05:58:29;97805.01;;;6.20;53.13
82887;BME280;72660;51.258;-2.200;2024-02-23T06:00:54;97805.78;;;6.00;53.08
82887;BME280;72660;51.258;-2.200;2024-02-23T06:03:20;97811.35;;;6.16;53.81
82887;BME280;72660;51.258;-2.200;2024-02-23T06:05:46;97815.71;;;5.89;54.11
82887;BME280;72660;51.258;-2.200;2024-02-23T06:08:11;97814.83;;;6.13;53.83
82887;BME280;72660;51.258;-2.200;2024-02-23T06:10:37;97816.39;;;6.01;54.13
82887;BME280;72660;51.258;-2.200;2024-02-23T06:13:02;97813.99;;;6.16;53.48
82887;BME280;72660;51.258;-2.200;2024-02-23T06:15:27;97815.56;;;6.00;53.94
82887;BME280;72660;51.258;-2.200;2024-02-23T06:17:53;97812.85;;;5.73;54.54
82887;BME280;72660;51.258;-2.200;2024-02-23T06:20:18;97812.92;;;6.30;54.04
82887;BME280;72660;51.258;-2.200;2024-02-23T06:22:44;97818.62;;;6.50;53.24
82887;BME280;72660;51.258;-2.200;2024-02-23T06:25:09;97817.41;;;6.42;53.15
82887;BME280;72660;51.258;-2.200;2024-02-23T06:27:36;97817.46;;;6.67;53.06
82887;BME280;72660;51.258;-2.200;2024-02-23T06:30:00;97815.85;;;6.34;53.04
82887;BME280;72660;51.258;-2.200;2024-02-23T06:32:26;97815.20;;;6.16;54.04
82887;BME280;72660;51.258;-2.200;2024-02-23T06:34:51;97804.49;;;6.24;53.66
82887;BME280;72660;51.258;-2.200;2024-02-23T06:37:16;97807.88;;;6.06;53.64
82887;BME280;72660;51.258;-2.200;2024-02-23T06:39:42;97807.41;;;5.67;54.27
82887;BME280;72660;51.258;-2.200;2024-02-23T06:42:07;97802.99;;;5.55;54.38
82887;BME280;72660;51.258;-2.200;2024-02-23T06:44:33;97807.00;;;5.84;53.87
82887;BME280;72660;51.258;-2.200;2024-02-23T06:46:58;97806.80;;;5.79;53.64
82887;BME280;72660;51.258;-2.200;2024-02-23T06:49:23;97809.21;;;5.90;53.69
82887;BME280;72660;51.258;-2.200;2024-02-23T06:51:49;97808.41;;;5.93;53.06
82887;BME280;72660;51.258;-2.200;2024-02-23T06:54:14;97811.97;;;5.82;53.81
82887;BME280;72660;51.258;-2.200;2024-02-23T06:56:40;97814.33;;;5.21;55.01
82887;BME280;72660;51.258;-2.200;2024-02-23T06:59:05;97815.94;;;5.67;54.53
82887;BME280;72660;51.258;-2.200;2024-02-23T07:01:31;97822.66;;;5.91;54.27
82887;BME280;72660;51.258;-2.200;2024-02-23T07:03:56;97824.57;;;6.02;54.38
82887;BME280;72660;51.258;-2.200;2024-02-23T07:06:21;97820.44;;;6.41;53.70
82887;BME280;72660;51.258;-2.200;2024-02-23T07:08:47;97820.94;;;5.86;54.13
82887;BME280;72660;51.258;-2.200;2024-02-23T07:11:12;97821.01;;;6.71;53.05
82887;BME280;72660;51.258;-2.200;2024-02-23T07:13:38;97816.42;;;6.68;52.45
82887;BME280;72660;51.258;-2.200;2024-02-23T07:16:04;97814.42;;;6.72;52.28
82887;BME280;72660;51.258;-2.200;2024-02-23T07:18:29;97813.47;;;6.86;51.43
82887;BME280;72660;51.258;-2.200;2024-02-23T07:20:54;97819.38;;;6.64;51.79
82887;BME280;72660;51.258;-2.200;2024-02-23T07:23:20;97816.68;;;6.27;52.31
82887;BME280;72660;51.258;-2.200;2024-02-23T07:25:45;97824.29;;;6.45;52.35
82887;BME280;72660;51.258;-2.200;2024-02-23T07:28:10;97824.20;;;6.59;51.88
82887;BME280;72660;51.258;-2.200;2024-02-23T07:30:36;97829.03;;;6.20;53.13
82887;BME280;72660;51.258;-2.200;2024-02-23T07:33:01;97832.43;;;6.62;52.73
82887;BME280;72660;51.258;-2.200;2024-02-23T07:35:27;97831.78;;;7.14;51.94
82887;BME280;72660;51.258;-2.200;2024-02-23T07:37:52;97825.96;;;7.65;50.77
82887;BME280;72660;51.258;-2.200;2024-02-23T07:40:17;97827.18;;;7.96;49.70
82887;BME280;72660;51.258;-2.200;2024-02-23T07:42:43;97828.72;;;7.73;49.54
82887;BME280;72660;51.258;-2.200;2024-02-23T07:45:09;97839.81;;;8.02;48.91
82887;BME280;72660;51.258;-2.200;2024-02-23T07:47:33;97840.24;;;7.92;48.66
82887;BME280;72660;51.258;-2.200;2024-02-23T07:49:59;97848.44;;;8.24;48.44
82887;BME280;72660;51.258;-2.200;2024-02-23T07:52:24;97845.46;;;8.13;48.78
82887;BME280;72660;51.258;-2.200;2024-02-23T07:54:49;97850.21;;;7.81;49.10
82887;BME280;72660;51.258;-2.200;2024-02-23T07:57:15;97849.13;;;8.14;48.67
82887;BME280;72660;51.258;-2.200;2024-02-23T07:59:40;97861.03;;;8.19;48.53
82887;BME280;72660;51.258;-2.200;2024-02-23T08:02:05;97850.00;;;9.13;46.49
82887;BME280;72660;51.258;-2.200;2024-02-23T08:04:31;97848.57;;;8.97;46.11
82887;BME280;72660;51.258;-2.200;2024-02-23T08:06:56;97850.71;;;10.21;44.90
82887;BME280;72660;51.258;-2.200;2024-02-23T08:09:22;97853.01;;;9.94;44.98
82887;BME280;72660;51.258;-2.200;2024-02-23T08:11:47;97863.39;;;11.22;42.57
82887;BME280;72660;51.258;-2.200;2024-02-23T08:14:12;97873.51;;;13.68;38.16
82887;BME280;72660;51.258;-2.200;2024-02-23T08:16:38;97876.34;;;15.89;35.74
82887;BME280;72660;51.258;-2.200;2024-02-23T08:19:03;97883.69;;;16.12;33.80
82887;BME280;72660;51.258;-2.200;2024-02-23T08:21:29;97881.00;;;16.57;33.62
82887;BME280;72660;51.258;-2.200;2024-02-23T08:23:54;97881.03;;;16.59;33.20
82887;BME280;72660;51.258;-2.200;2024-02-23T08:26:24;97874.92;;;17.16;32.47
82887;BME280;72660;51.258;-2.200;2024-02-23T08:28:44;97874.52;;;18.09;31.65
82887;BME280;72660;51.258;-2.200;2024-02-23T08:31:10;97873.80;;;17.65;31.90
82887;BME280;72660;51.258;-2.200;2024-02-23T08:33:35;97865.98;;;16.13;32.92
82887;BME280;72660;51.258;-2.200;2024-02-23T08:36:00;97865.11;;;15.70;34.23
82887;BME280;72660;51.258;-2.200;2024-02-23T08:38:26;97858.33;;;15.10;34.49
82887;BME280;72660;51.258;-2.200;2024-02-23T08:40:51;97857.60;;;15.03;35.23
82887;BME280;72660;51.258;-2.200;2024-02-23T08:43:16;97852.92;;;14.49;35.51
82887;BME280;72660;51.258;-2.200;2024-02-23T08:45:41;97851.25;;;14.64;35.73
82887;BME280;72660;51.258;-2.200;2024-02-23T08:48:07;97849.83;;;15.18;35.31
82887;BME280;72660;51.258;-2.200;2024-02-23T08:50:32;97850.22;;;14.12;36.85
82887;BME280;72660;51.258;-2.200;2024-02-23T08:52:57;97848.71;;;13.26;37.59
82887;BME280;72660;51.258;-2.200;2024-02-23T08:55:23;97856.66;;;12.77;38.50
82887;BME280;72660;51.258;-2.200;2024-02-23T08:57:48;97863.23;;;11.90;39.39
82887;BME280;72660;51.258;-2.200;2024-02-23T09:00:14;97869.76;;;11.87;39.87
82887;BME280;72660;51.258;-2.200;2024-02-23T09:02:38;97870.34;;;11.77;40.93
82887;BME280;72660;51.258;-2.200;2024-02-23T09:05:05;97872.79;;;10.91;41.62
82887;BME280;72660;51.258;-2.200;2024-02-23T09:07:29;97871.84;;;11.39;40.95
82887;BME280;72660;51.258;-2.200;2024-02-23T09:09:54;97874.23;;;11.59;40.56
82887;BME280;72660;51.258;-2.200;2024-02-23T09:12:20;97875.27;;;12.66;39.56
82887;BME280;72660;51.258;-2.200;2024-02-23T09:14:45;97877.09;;;12.37;39.02
82887;BME280;72660;51.258;-2.200;2024-02-23T09:17:11;97869.31;;;11.86;39.60
82887;BME280;72660;51.258;-2.200;2024-02-23T09:19:36;97875.95;;;12.10;39.56
82887;BME280;72660;51.258;-2.200;2024-02-23T09:22:01;97877.06;;;12.18;39.40
82887;BME280;72660;51.258;-2.200;2024-02-23T09:24:27;97876.54;;;12.22;39.76
82887;BME280;72660;51.258;-2.200;2024-02-23T09:26:52;97878.14;;;12.69;39.57
82887;BME280;72660;51.258;-2.200;2024-02-23T09:29:17;97871.82;;;11.85;40.31
82887;BME280;72660;51.258;-2.200;2024-02-23T09:31:43;97874.18;;;11.24;40.65
82887;BME280;72660;51.258;-2.200;2024-02-23T09:34:08;97873.31;;;10.92;40.92
82887;BME280;72660;51.258;-2.200;2024-02-23T09:36:33;97875.83;;;11.19;41.21
82887;BME280;72660;51.258;-2.200;2024-02-23T09:38:58;97876.90;;;12.14;40.12
82887;BME280;72660;51.258;-2.200;2024-02-23T09:41:24;97876.50;;;12.61;39.91
82887;BME280;72660;51.258;-2.200;2024-02-23T09:43:50;97875.57;;;12.26;39.12
82887;BME280;72660;51.258;-2.200;2024-02-23T09:46:16;97873.70;;;12.62;38.98
82887;BME280;72660;51.258;-2.200;2024-02-23T09:48:40;97878.67;;;11.58;39.93
82887;BME280;72660;51.258;-2.200;2024-02-23T09:51:06;97878.16;;;12.68;39.02
82887;BME280;72660;51.258;-2.200;2024-02-23T09:53:31;97886.42;;;11.69;39.76
82887;BME280;72660;51.258;-2.200;2024-02-23T09:55:58;97885.79;;;12.12;39.85
82887;BME280;72660;51.258;-2.200;2024-02-23T09:58:21;97878.28;;;11.52;39.91
82887;BME280;72660;51.258;-2.200;2024-02-23T10:00:46;97879.85;;;11.93;39.80
82887;BME280;72660;51.258;-2.200;2024-02-23T10:03:12;97886.40;;;11.72;40.03
82887;BME280;72660;51.258;-2.200;2024-02-23T10:05:37;97888.69;;;11.87;39.79
82887;BME280;72660;51.258;-2.200;2024-02-23T10:08:03;97891.60;;;11.93;39.79
82887;BME280;72660;51.258;-2.200;2024-02-23T10:10:30;97891.63;;;12.45;39.86
82887;BME280;72660;51.258;-2.200;2024-02-23T10:12:53;97889.26;;;12.52;39.83
82887;BME280;72660;51.258;-2.200;2024-02-23T10:15:18;97890.80;;;11.39;41.32
82887;BME280;72660;51.258;-2.200;2024-02-23T10:17:44;97897.07;;;11.92;40.51
82887;BME280;72660;51.258;-2.200;2024-02-23T10:20:10;97898.92;;;11.39;41.05
82887;BME280;72660;51.258;-2.200;2024-02-23T10:22:35;97898.21;;;10.45;41.14
82887;BME280;72660;51.258;-2.200;2024-02-23T10:25:00;97900.00;;;12.49;40.50
82887;BME280;72660;51.258;-2.200;2024-02-23T10:27:25;97904.09;;;12.52;39.66
82887;BME280;72660;51.258;-2.200;2024-02-23T10:29:51;97907.96;;;11.31;40.57
82887;BME280;72660;51.258;-2.200;2024-02-23T10:32:18;97911.39;;;11.32;40.30
82887;BME280;72660;51.258;-2.200;2024-02-23T10:34:42;97902.12;;;10.85;41.77
82887;BME280;72660;51.258;-2.200;2024-02-23T10:37:07;97905.91;;;11.00;41.40
82887;BME280;72660;51.258;-2.200;2024-02-23T10:39:33;97908.72;;;10.74;42.41
82887;BME280;72660;51.258;-2.200;2024-02-23T10:42:02;97914.23;;;10.25;43.28
82887;BME280;72660;51.258;-2.200;2024-02-23T10:44:24;97915.98;;;11.19;41.93
82887;BME280;72660;51.258;-2.200;2024-02-23T10:46:49;97920.45;;;11.15;41.91
82887;BME280;72660;51.258;-2.200;2024-02-23T10:49:15;97926.72;;;11.78;40.53
82887;BME280;72660;51.258;-2.200;2024-02-23T10:51:39;97933.97;;;12.03;39.94
82887;BME280;72660;51.258;-2.200;2024-02-23T10:54:04;97937.18;;;11.37;40.79
82887;BME280;72660;51.258;-2.200;2024-02-23T10:56:29;97942.04;;;11.75;41.24
82887;BME280;72660;51.258;-2.200;2024-02-23T10:58:54;97942.17;;;11.62;40.94
82887;BME280;72660;51.258;-2.200;2024-02-23T11:01:21;97947.25;;;11.56;41.41
82887;BME280;72660;51.258;-2.200;2024-02-23T11:03:46;97947.32;;;11.51;41.39
82887;BME280;72660;51.258;-2.200;2024-02-23T11:06:11;97948.59;;;11.25;41.39
82887;BME280;72660;51.258;-2.200;2024-02-23T11:08:36;97952.65;;;11.47;41.25
82887;BME280;72660;51.258;-2.200;2024-02-23T11:11:07;97954.69;;;11.71;41.60
82887;BME280;72660;51.258;-2.200;2024-02-23T11:13:30;97955.18;;;11.39;41.26
82887;BME280;72660;51.258;-2.200;2024-02-23T11:16:01;97959.41;;;11.23;40.78
82887;BME280;72660;51.258;-2.200;2024-02-23T11:20:43;97952.59;;;11.46;41.50
82887;BME280;72660;51.258;-2.200;2024-02-23T11:23:13;97954.50;;;11.18;41.29
82887;BME280;72660;51.258;-2.200;2024-02-23T11:25:35;97958.55;;;11.35;41.45
82887;BME280;72660;51.258;-2.200;2024-02-23T11:27:59;97961.28;;;11.31;41.01
82887;BME280;72660;51.258;-2.200;2024-02-23T11:30:26;97966.39;;;11.83;40.44
82887;BME280;72660;51.258;-2.200;2024-02-23T11:32:50;97964.25;;;11.71;41.20
82887;BME280;72660;51.258;-2.200;2024-02-23T11:35:16;97965.67;;;12.63;40.12
82887;BME280;72660;51.258;-2.200;2024-02-23T11:37:47;97964.95;;;12.21;40.27
82887;BME280;72660;51.258;-2.200;2024-02-23T11:40:07;97962.50;;;12.08;40.22
82887;BME280;72660;51.258;-2.200;2024-02-23T11:42:31;97957.26;;;12.29;40.05
82887;BME280;72660;51.258;-2.200;2024-02-23T11:44:56;97959.06;;;12.81;39.03
82887;BME280;72660;51.258;-2.200;2024-02-23T11:47:21;97955.03;;;12.59;39.51
82887;BME280;72660;51.258;-2.200;2024-02-23T11:49:46;97952.96;;;11.93;40.48
82887;BME280;72660;51.258;-2.200;2024-02-23T11:52:12;97950.65;;;11.82;40.08
82887;BME280;72660;51.258;-2.200;2024-02-23T11:54:37;97948.34;;;11.50;40.36
82887;BME280;72660;51.258;-2.200;2024-02-23T11:57:03;97951.13;;;11.60;40.67
82887;BME280;72660;51.258;-2.200;2024-02-23T11:59:28;97951.72;;;12.09;40.78
82887;BME280;72660;51.258;-2.200;2024-02-23T12:01:53;97950.56;;;11.10;40.95
82887;BME280;72660;51.258;-2.200;2024-02-23T12:04:19;97948.64;;;11.70;40.62
82887;BME280;72660;51.258;-2.200;2024-02-23T12:06:44;97942.63;;;11.78;41.03
82887;BME280;72660;51.258;-2.200;2024-02-23T12:09:09;97945.57;;;11.88;40.63
82887;BME280;72660;51.258;-2.200;2024-02-23T12:11:34;97947.00;;;12.05;40.94
82887;BME280;72660;51.258;-2.200;2024-02-23T12:14:00;97945.50;;;11.58;41.88
82887;BME280;72660;51.258;-2.200;2024-02-23T12:16:25;97941.61;;;11.45;41.74
82887;BME280;72660;51.258;-2.200;2024-02-23T12:18:54;97946.07;;;10.84;41.92
82887;BME280;72660;51.258;-2.200;2024-02-23T12:21:16;97944.26;;;10.92;43.14
82887;BME280;72660;51.258;-2.200;2024-02-23T12:23:42;97943.67;;;10.71;44.02
82887;BME280;72660;51.258;-2.200;2024-02-23T12:26:06;97942.14;;;10.93;43.12
82887;BME280;72660;51.258;-2.200;2024-02-23T12:28:32;97938.10;;;10.75;42.57
82887;BME280;72660;51.258;-2.200;2024-02-23T12:30:59;97936.82;;;11.05;42.68
82887;BME280;72660;51.258;-2.200;2024-02-23T12:33:22;97930.09;;;11.91;41.82
82887;BME280;72660;51.258;-2.200;2024-02-23T12:35:48;97926.58;;;11.59;41.64
82887;BME280;72660;51.258;-2.200;2024-02-23T12:38:13;97922.98;;;12.05;40.93
82887;BME280;72660;51.258;-2.200;2024-02-23T12:40:38;97929.23;;;12.55;39.56
82887;BME280;72660;51.258;-2.200;2024-02-23T12:43:04;97924.52;;;13.14;38.42
82887;BME280;72660;51.258;-2.200;2024-02-23T12:45:29;97921.53;;;13.17;37.96
82887;BME280;72660;51.258;-2.200;2024-02-23T12:47:54;97917.69;;;13.31;37.13
82887;BME280;72660;51.258;-2.200;2024-02-23T12:50:20;97915.26;;;14.05;36.08